Time;durP1;ratioP1;P1;durP2;ratioP2;P2;SDS_P1;SDS_P2;PMS_P1;PMS_P2;Temp;Humidity;BMP_temperature;BMP_pressure;BME280_temperature;BME280_humidity;BME280_pressure;Samples;Min_cycle;Max_cycle;Signal;HPM_P1;HPM_P2
2021/06/23 00:00:31;;;;;;;6.90;3.85;;;;;;;14.27;62.89;101363.97;5095864;28;20028;-85
2021/06/23 00:02:57;;;;;;;6.63;3.70;;;;;;;14.25;62.97;101355.28;5095981;28;20016;-84
2021/06/23 00:05:23;;;;;;;4.95;3.60;;;;;;;14.23;62.91;101359.84;5095946;28;20038;-84
2021/06/23 00:07:49;;;;;;;7.15;3.78;;;;;;;14.19;63.18;101345.16;5077940;28;20028;-85
2021/06/23 00:10:15;;;;;;;4.93;3.90;;;;;;;14.17;63.12;101352.34;5095817;28;20175;-84
2021/06/23 00:12:44;;;;;;;5.43;3.97;;;;;;;14.23;62.18;101349.28;5095836;28;20107;-84
2021/06/23 00:15:13;;;;;;;7.68;3.97;;;;;;;14.12;63.45;101349.19;5096086;28;20055;-84
2021/06/23 00:17:39;;;;;;;6.18;3.97;;;;;;;14.02;63.47;101348.06;5095681;28;20521;-84
2021/06/23 00:20:05;;;;;;;5.35;3.78;;;;;;;13.96;63.05;101348.50;5105765;28;20027;-84
2021/06/23 00:22:31;;;;;;;7.07;5.10;;;;;;;13.93;64.00;101343.44;5116122;27;20072;-85
2021/06/23 00:24:56;;;;;;;5.03;3.63;;;;;;;13.91;63.83;101342.69;5116009;28;20024;-85
2021/06/23 00:27:22;;;;;;;7.75;4.03;;;;;;;13.89;63.03;101359.47;5114742;28;20027;-85
2021/06/23 00:29:47;;;;;;;5.40;3.72;;;;;;;13.91;63.30;101345.34;5116137;28;20376;-84
2021/06/23 00:32:15;;;;;;;6.80;3.60;;;;;;;13.96;63.62;101343.22;5116040;28;20059;-84
2021/06/23 00:34:41;;;;;;;7.13;3.53;;;;;;;13.81;63.46;101345.09;5114297;28;20030;-84
2021/06/23 00:37:06;;;;;;;7.03;3.92;;;;;;;13.84;63.63;101350.16;5115981;27;20473;-85
2021/06/23 00:39:31;;;;;;;6.60;5.00;;;;;;;13.84;64.06;101345.75;5115864;28;20023;-84
2021/06/23 00:41:57;;;;;;;4.90;4.05;;;;;;;13.78;63.92;101351.41;5115863;28;20369;-84
2021/06/23 00:44:23;;;;;;;5.70;3.67;;;;;;;13.79;64.08;101342.56;5115876;28;20027;-84
2021/06/23 00:46:49;;;;;;;6.35;3.80;;;;;;;13.79;64.22;101353.13;5116142;28;20568;-84
2021/06/23 00:49:14;;;;;;;5.65;3.90;;;;;;;13.80;63.95;101339.00;5108300;28;20103;-84
2021/06/23 00:51:41;;;;;;;11.10;4.28;;;;;;;13.79;63.95;101342.56;5095395;28;20056;-84
2021/06/23 00:54:10;;;;;;;6.15;3.65;;;;;;;13.77;64.51;101341.81;5095448;28;20346;-84
2021/06/23 00:56:36;;;;;;;6.03;3.92;;;;;;;13.71;64.40;101334.31;5095146;28;20050;-84
2021/06/23 00:59:02;;;;;;;6.22;4.10;;;;;;;13.80;64.49;101335.47;5095032;28;20061;-84
2021/06/23 01:01:31;;;;;;;5.28;4.32;;;;;;;13.82;64.38;101339.72;5095113;28;20012;-84
2021/06/23 01:03:57;;;;;;;7.85;3.97;;;;;;;13.83;64.81;101337.94;5101627;28;20039;-84
2021/06/23 01:06:22;;;;;;;6.07;3.45;;;;;;;13.80;65.04;101346.91;5115349;28;20027;-84
2021/06/23 01:08:48;;;;;;;7.35;4.20;;;;;;;13.81;64.54;101345.94;5114109;28;20027;-84
2021/06/23 01:11:13;;;;;;;6.50;4.10;;;;;;;13.81;64.77;101348.59;5115083;28;20020;-84
2021/06/23 01:14:02;;;;;;;6.32;4.07;;;;;;;13.93;64.66;101343.44;5115103;28;20084;-84
2021/06/23 01:16:29;;;;;;;6.78;3.53;;;;;;;13.83;64.82;101351.13;5115032;28;20032;-84
2021/06/23 01:18:56;;;;;;;5.80;3.03;;;;;;;13.81;65.27;101350.38;5114431;27;20030;-84
2021/06/23 01:21:22;;;;;;;8.57;3.53;;;;;;;13.75;65.39;101346.34;5111389;28;20028;-84
2021/06/23 01:23:47;;;;;;;5.22;3.22;;;;;;;13.72;64.76;101353.63;5114879;28;20023;-84
2021/06/23 01:26:13;;;;;;;7.63;3.17;;;;;;;13.72;64.93;101349.19;5113702;28;20477;-84
2021/06/23 01:28:39;;;;;;;8.95;3.20;;;;;;;13.65;65.50;101346.13;5115228;28;20027;-84
2021/06/23 01:31:04;;;;;;;6.20;3.00;;;;;;;13.66;65.04;101347.81;5114651;28;20032;-84
2021/06/23 01:33:34;;;;;;;4.75;2.50;;;;;;;13.61;65.61;101343.78;5113072;28;20031;-84
2021/06/23 01:35:59;;;;;;;7.30;2.40;;;;;;;13.57;65.89;101351.06;5094298;28;20032;-84
2021/06/23 01:38:25;;;;;;;15.73;3.25;;;;;;;13.53;65.54;101338.16;5094295;28;20398;-84
2021/06/23 01:40:52;;;;;;;5.00;2.47;;;;;;;13.54;65.59;101342.50;5094246;28;20024;-84
2021/06/23 01:43:18;;;;;;;2.67;2.00;;;;;;;13.55;65.58;101344.19;5094351;28;20077;-84
2021/06/23 01:45:45;;;;;;;5.10;2.30;;;;;;;13.47;66.29;101342.06;5094117;28;20024;-84
2021/06/23 01:48:14;;;;;;;6.47;2.40;;;;;;;13.51;66.44;101343.53;5094780;28;20203;-84
2021/06/23 01:50:39;;;;;;;6.85;2.60;;;;;;;13.46;66.03;101346.47;5114232;28;20472;-84
2021/06/23 01:53:05;;;;;;;5.43;2.45;;;;;;;13.45;66.07;101334.22;5114285;28;20039;-85
2021/06/23 01:55:30;;;;;;;5.32;2.42;;;;;;;13.46;65.79;101341.19;5114425;28;20031;-84
2021/06/23 01:58:00;;;;;;;5.63;2.70;;;;;;;13.49;66.12;101341.00;5114495;28;20019;-84
2021/06/23 02:00:32;;;;;;;6.10;2.65;;;;;;;13.43;66.41;101336.13;5114635;28;20027;-85
2021/06/23 02:03:05;;;;;;;4.63;2.30;;;;;;;13.41;66.19;101339.81;5112874;28;20024;-84
2021/06/23 02:05:43;;;;;;;3.20;2.42;;;;;;;13.39;66.42;101328.50;5093630;28;20042;-84
2021/06/23 02:08:19;;;;;;;5.55;2.53;;;;;;;13.28;66.30;101339.72;5093754;28;20056;-84
2021/06/23 02:10:51;;;;;;;7.93;2.60;;;;;;;13.28;66.58;101337.91;5093654;28;20020;-84
2021/06/23 02:13:28;;;;;;;3.70;2.45;;;;;;;13.29;66.36;101334.38;5093630;28;20024;-84
2021/06/23 02:15:56;;;;;;;6.57;2.75;;;;;;;13.17;66.82;101335.16;5093435;28;20039;-84
2021/06/23 02:18:26;;;;;;;4.28;2.72;;;;;;;13.13;67.33;101332.78;5094860;28;20121;-84
2021/06/23 02:20:56;;;;;;;6.80;3.30;;;;;;;13.08;66.71;101336.56;5093282;28;20028;-84
2021/06/23 02:23:22;;;;;;;4.15;2.95;;;;;;;13.01;67.14;101334.41;5093569;28;20024;-84
2021/06/23 02:25:47;;;;;;;4.90;2.90;;;;;;;13.00;67.23;101336.22;5093207;28;20028;-84
2021/06/23 02:28:13;;;;;;;3.58;2.88;;;;;;;12.99;67.18;101336.31;5093221;28;20024;-84
2021/06/23 02:30:38;;;;;;;5.82;2.92;;;;;;;12.99;66.87;101336.31;5093340;28;20028;-84
2021/06/23 02:33:07;;;;;;;6.60;2.38;;;;;;;12.92;67.53;101335.00;5093186;28;20454;-84
2021/06/23 02:35:34;;;;;;;9.40;3.13;;;;;;;12.94;67.67;101333.97;5093355;28;20027;-84
2021/06/23 02:37:59;;;;;;;3.25;2.05;;;;;;;12.85;67.42;101337.16;5093750;28;20074;-84
2021/06/23 02:40:26;;;;;;;4.40;2.20;;;;;;;12.83;67.22;101336.41;5094032;28;20036;-84
2021/06/23 02:42:51;;;;;;;5.55;2.50;;;;;;;12.81;67.46;101340.94;5094034;28;20020;-85
2021/06/23 02:45:17;;;;;;;5.93;1.73;;;;;;;12.73;66.25;101340.56;5095058;28;20358;-85
2021/06/23 02:47:43;;;;;;;3.85;1.85;;;;;;;12.67;66.73;101340.00;5101054;28;20016;-85
2021/06/23 02:50:09;;;;;;;6.90;2.85;;;;;;;12.72;67.48;101344.13;5112979;28;20082;-85
2021/06/23 02:52:37;;;;;;;5.28;1.85;;;;;;;12.68;66.82;101336.44;5114136;28;20485;-84
2021/06/23 02:55:04;;;;;;;8.32;2.35;;;;;;;12.65;67.27;101339.25;5112868;28;20032;-85
2021/06/23 02:57:29;;;;;;;6.63;2.20;;;;;;;12.62;67.70;101339.47;5113683;28;20062;-85
2021/06/23 02:59:55;;;;;;;8.18;2.28;;;;;;;12.60;67.79;101340.47;5119125;28;20024;-85
2021/06/23 03:02:20;;;;;;;6.90;2.67;;;;;;;12.56;67.69;101333.69;5137284;28;20016;-85
2021/06/23 03:04:48;;;;;;;4.05;2.53;;;;;;;12.58;68.01;101345.84;5138902;28;20012;-85
2021/06/23 03:07:14;;;;;;;3.20;2.13;;;;;;;12.54;67.55;101347.00;5138985;28;20036;-85
2021/06/23 03:09:42;;;;;;;3.60;2.00;;;;;;;12.49;68.25;101343.78;5139001;28;20012;-85
2021/06/23 03:12:09;;;;;;;4.60;2.10;;;;;;;12.48;67.99;101342.09;5138888;28;20031;-85
2021/06/23 03:14:34;;;;;;;3.70;1.58;;;;;;;12.47;67.81;101335.13;5138987;28;20019;-85
2021/06/23 03:17:00;;;;;;;4.93;1.98;;;;;;;12.37;68.76;101339.25;5138254;28;20083;-85
2021/06/23 03:19:26;;;;;;;5.55;1.88;;;;;;;12.39;68.53;101338.22;5129142;28;20372;-85
2021/06/23 03:21:51;;;;;;;4.70;1.90;;;;;;;12.40;68.64;101336.44;5136261;28;20012;-84
2021/06/23 03:24:17;;;;;;;6.55;1.65;;;;;;;12.36;68.67;101338.41;5122726;28;20074;-84
2021/06/23 03:26:42;;;;;;;8.80;2.47;;;;;;;12.35;68.99;101338.50;5115968;28;20072;-85
2021/06/23 03:29:27;;;;;;;6.00;2.00;;;;;;;12.48;68.35;101342.94;5118087;28;20008;-85
2021/06/23 03:31:52;;;;;;;3.80;1.55;;;;;;;12.32;68.79;101333.41;5117438;28;20090;-84
2021/06/23 03:34:17;;;;;;;7.85;2.20;;;;;;;12.33;68.87;101338.59;5117436;28;20012;-84
2021/06/23 03:36:43;;;;;;;7.75;2.33;;;;;;;12.31;68.94;101340.47;5118136;28;20015;-85
2021/06/23 03:39:08;;;;;;;4.43;1.73;;;;;;;12.33;68.46;101335.13;5119051;28;20020;-85
2021/06/23 03:41:34;;;;;;;4.95;2.05;;;;;;;12.31;68.72;101340.47;5105382;28;19996;-85
2021/06/23 03:43:59;;;;;;;5.35;1.65;;;;;;;12.31;68.63;101340.47;5117590;28;20026;-84
2021/06/23 03:46:24;;;;;;;3.33;1.90;;;;;;;12.28;68.44;101346.78;5117850;28;20038;-84
2021/06/23 03:48:50;;;;;;;7.00;2.13;;;;;;;12.28;68.90;101348.53;5117815;28;20012;-84
2021/06/23 03:51:15;;;;;;;2.90;1.98;;;;;;;12.22;69.43;101343.66;5117788;28;20018;-84
2021/06/23 03:53:41;;;;;;;4.25;1.77;;;;;;;12.14;70.10;101343.25;5117771;28;20020;-84
2021/06/23 03:56:06;;;;;;;5.32;2.20;;;;;;;12.19;70.14;101352.59;5112259;28;20134;-84
2021/06/23 03:58:32;;;;;;;4.57;2.10;;;;;;;12.21;70.05;101350.72;5092286;28;20047;-84
2021/06/23 04:00:57;;;;;;;5.78;1.95;;;;;;;12.24;70.30;101358.44;5092268;28;20027;-84
2021/06/23 04:03:23;;;;;;;6.55;2.05;;;;;;;12.20;70.84;101356.91;5092091;28;20099;-84
2021/06/23 04:05:48;;;;;;;5.13;2.15;;;;;;;12.18;70.86;101361.41;5092116;28;20057;-84
2021/06/23 04:08:14;;;;;;;7.88;2.78;;;;;;;12.22;71.03;101359.44;5091894;28;20036;-85
2021/06/23 04:10:39;;;;;;;3.17;2.72;;;;;;;12.24;70.44;101358.44;5110121;28;20062;-84
2021/06/23 04:13:05;;;;;;;7.72;2.25;;;;;;;12.26;69.66;101364.47;5112498;28;20027;-84
2021/06/23 04:15:30;;;;;;;3.97;1.90;;;;;;;12.23;69.43;101369.91;5112269;28;20024;-84
2021/06/23 04:17:55;;;;;;;3.55;1.92;;;;;;;12.20;69.63;101374.50;5112560;28;20100;-85
2021/06/23 04:20:21;;;;;;;3.70;1.63;;;;;;;12.17;68.80;101379.97;5112217;28;20020;-84
2021/06/23 04:22:46;;;;;;;3.83;1.65;;;;;;;12.14;68.48;101385.38;5112623;28;20513;-84
2021/06/23 04:25:13;;;;;;;6.68;1.88;;;;;;;12.12;68.95;101393.38;5096601;28;20039;-84
2021/06/23 04:27:39;;;;;;;5.28;1.85;;;;;;;12.11;68.78;101381.16;5092252;28;20386;-84
2021/06/23 04:30:10;;;;;;;3.33;1.65;;;;;;;12.14;68.89;101380.97;5091556;28;20027;-84
2021/06/23 04:32:35;;;;;;;4.07;2.65;;;;;;;12.04;69.24;101374.56;5091539;28;20090;-84
2021/06/23 04:35:03;;;;;;;6.38;2.95;;;;;;;12.03;69.40;101383.41;5091941;28;20549;-84
2021/06/23 04:37:29;;;;;;;8.93;4.70;;;;;;;12.07;70.13;101387.53;5091643;28;20024;-84
2021/06/23 04:39:55;;;;;;;9.00;3.17;;;;;;;12.10;70.07;101382.09;5092543;28;20036;-84
2021/06/23 04:42:21;;;;;;;4.40;2.75;;;;;;;12.13;69.77;101384.56;5091340;28;20482;-84
2021/06/23 04:44:46;;;;;;;4.45;2.60;;;;;;;12.13;69.33;101387.19;5093356;28;20032;-84
2021/06/23 04:47:12;;;;;;;4.55;3.17;;;;;;;12.12;69.65;101385.47;5095510;28;20031;-84
2021/06/23 04:49:37;;;;;;;4.47;3.10;;;;;;;12.12;69.31;101385.47;5095220;28;20038;-85
2021/06/23 04:52:03;;;;;;;2.80;2.55;;;;;;;12.16;69.34;101391.41;5095669;28;20028;-84
2021/06/23 04:54:28;;;;;;;4.18;2.72;;;;;;;12.17;69.73;101391.31;5103081;28;20092;-85
2021/06/23 04:56:54;;;;;;;9.43;3.75;;;;;;;12.16;70.02;101392.25;5115383;28;20022;-85
2021/06/23 04:59:19;;;;;;;7.50;3.60;;;;;;;12.12;69.60;101384.63;5115781;28;20093;-85
2021/06/23 05:01:44;;;;;;;6.20;3.47;;;;;;;12.15;70.18;101387.94;5115368;28;20419;-84
2021/06/23 05:04:10;;;;;;;6.88;3.38;;;;;;;12.14;70.03;101390.66;5115304;28;20110;-85
2021/06/23 05:06:36;;;;;;;6.13;3.50;;;;;;;12.16;70.72;101383.50;5115296;28;20533;-84
2021/06/23 05:09:01;;;;;;;6.50;3.78;;;;;;;12.14;70.46;101391.50;5107528;28;20425;-84
2021/06/23 05:11:27;;;;;;;6.65;3.65;;;;;;;12.19;70.69;101392.09;5095624;28;20040;-84
2021/06/23 05:13:55;;;;;;;9.93;4.72;;;;;;;12.24;70.74;101397.94;5094849;28;20103;-84
2021/06/23 05:16:20;;;;;;;5.03;4.13;;;;;;;12.26;70.92;101390.78;5094511;28;20033;-84
2021/06/23 05:18:46;;;;;;;8.45;4.55;;;;;;;12.27;71.19;101397.75;5094593;28;20027;-85
2021/06/23 05:21:11;;;;;;;7.03;4.15;;;;;;;12.33;70.44;101393.91;5094743;28;20017;-84
2021/06/23 05:23:39;;;;;;;5.70;4.05;;;;;;;12.37;70.31;101391.94;5094645;28;20024;-85
2021/06/23 05:26:05;;;;;;;5.47;3.90;;;;;;;12.29;70.54;101392.38;5099513;28;20046;-84
2021/06/23 05:28:30;;;;;;;9.50;4.70;;;;;;;12.25;71.63;101383.81;5114983;28;20024;-84
2021/06/23 05:30:55;;;;;;;7.18;4.47;;;;;;;12.36;71.64;101400.75;5114980;28;20028;-84
2021/06/23 05:33:21;;;;;;;10.77;4.25;;;;;;;12.39;71.66;101393.53;5114894;28;20016;-84
2021/06/23 05:35:46;;;;;;;9.10;5.18;;;;;;;12.43;71.65;101402.09;5114566;28;20031;-84
2021/06/23 05:38:11;;;;;;;7.90;4.80;;;;;;;12.45;71.45;101408.13;5114342;28;20092;-84
2021/06/23 05:40:39;;;;;;;7.45;4.75;;;;;;;12.60;71.50;101403.69;5095233;28;20444;-84
2021/06/23 05:43:04;;;;;;;9.05;5.13;;;;;;;12.64;70.63;101400.81;5094221;28;20028;-85
2021/06/23 05:45:30;;;;;;;7.68;4.85;;;;;;;12.73;71.38;101393.28;5094207;28;20035;-84
2021/06/23 05:47:55;;;;;;;4.40;3.75;;;;;;;12.82;72.00;101403.25;5094166;28;20031;-84
2021/06/23 05:50:20;;;;;;;6.63;4.55;;;;;;;12.86;71.64;101395.06;5093908;28;20043;-85
2021/06/23 05:52:46;;;;;;;10.45;6.90;;;;;;;12.98;71.77;101409.28;5094165;28;20292;-84
2021/06/23 05:55:11;;;;;;;6.40;4.75;;;;;;;13.07;71.23;101406.06;5108263;28;20028;-85
2021/06/23 05:57:37;;;;;;;7.32;4.60;;;;;;;13.14;71.18;101406.53;5109807;28;20031;-84
2021/06/23 06:00:04;;;;;;;6.70;5.22;;;;;;;13.27;71.11;101410.09;5114394;28;20031;-84
2021/06/23 06:02:29;;;;;;;6.80;5.07;;;;;;;13.32;71.51;101414.25;5114433;28;20069;-85
2021/06/23 06:04:54;;;;;;;9.07;5.60;;;;;;;13.37;71.16;101394.56;5114326;28;20423;-92
2021/06/23 06:07:20;;;;;;;9.48;6.82;;;;;;;13.49;71.01;101406.13;5114228;27;20111;-86
2021/06/23 06:09:45;;;;;;;9.80;6.65;;;;;;;13.67;70.40;101406.72;5113903;28;20026;-85
2021/06/23 06:12:11;;;;;;;12.27;7.38;;;;;;;13.87;70.62;101406.25;5108590;28;20024;-85
2021/06/23 06:14:36;;;;;;;7.88;7.07;;;;;;;14.40;68.81;101410.69;5114207;28;20038;-85
2021/06/23 06:17:03;;;;;;;12.48;6.80;;;;;;;15.04;66.01;101411.53;5114141;28;20115;-85
2021/06/23 06:19:28;;;;;;;9.15;6.57;;;;;;;15.81;64.26;101410.47;5114068;28;20072;-86
2021/06/23 06:21:54;;;;;;;12.55;9.90;;;;;;;16.58;62.40;101416.09;5113276;28;20023;-86
2021/06/23 06:24:20;;;;;;;12.75;8.38;;;;;;;17.15;60.81;101408.19;5113339;28;20496;-85
2021/06/23 06:26:46;;;;;;;12.48;8.15;;;;;;;17.69;59.20;101412.63;5113895;27;20020;-85
2021/06/23 06:29:11;;;;;;;8.80;6.75;;;;;;;17.96;57.06;101414.03;5113189;28;20377;-85
2021/06/23 06:31:36;;;;;;;8.75;6.70;;;;;;;18.08;56.27;101407.66;5100120;28;20115;-89
2021/06/23 06:34:02;;;;;;;9.63;6.20;;;;;;;18.60;55.47;101418.34;5093106;28;20418;-84
2021/06/23 06:36:27;;;;;;;11.68;6.75;;;;;;;19.14;53.82;101409.25;5111917;28;20051;-85
2021/06/23 06:38:52;;;;;;;12.98;7.63;;;;;;;20.03;52.01;101408.38;5113568;28;20465;-85
2021/06/23 06:41:18;;;;;;;10.70;8.20;;;;;;;21.03;50.59;101401.69;5112588;28;20058;-85
2021/06/23 06:43:43;;;;;;;9.50;7.68;;;;;;;21.98;49.19;101412.88;5111729;28;20024;-86
2021/06/23 06:46:09;;;;;;;10.32;7.00;;;;;;;22.58;46.07;101410.28;5109555;28;20035;-85
2021/06/23 06:48:34;;;;;;;11.75;8.25;;;;;;;23.19;44.49;101412.13;5112614;28;20073;-85
2021/06/23 06:50:59;;;;;;;10.82;7.05;;;;;;;23.75;42.41;101411.38;5112705;28;20054;-85
2021/06/23 06:53:25;;;;;;;9.55;7.32;;;;;;;24.23;40.72;101408.03;5112379;28;20110;-86
2021/06/23 06:55:50;;;;;;;7.72;6.40;;;;;;;24.65;41.49;101407.00;5113118;28;20031;-86
2021/06/23 06:58:16;;;;;;;8.30;6.38;;;;;;;25.22;39.45;101401.41;5104048;28;20085;-86
2021/06/23 07:00:42;;;;;;;9.02;6.18;;;;;;;25.66;38.10;101398.09;5110860;28;20023;-86
2021/06/23 07:03:08;;;;;;;10.32;5.80;;;;;;;26.16;37.02;101408.47;5109372;28;20395;-86
2021/06/23 07:05:33;;;;;;;7.15;5.35;;;;;;;26.34;36.23;101411.66;5110184;28;20038;-86
2021/06/23 07:07:59;;;;;;;6.07;4.63;;;;;;;26.74;36.71;101416.81;5111618;28;20393;-86
2021/06/23 07:10:24;;;;;;;11.07;4.50;;;;;;;27.16;34.74;101405.34;5113109;28;20556;-86
2021/06/23 07:12:49;;;;;;;8.45;4.25;;;;;;;27.75;34.92;101403.50;5099925;28;20064;-86
2021/06/23 07:15:16;;;;;;;10.20;5.35;;;;;;;27.70;33.94;101410.28;5093453;28;20032;-86
2021/06/23 07:17:41;;;;;;;8.57;4.25;;;;;;;28.33;31.92;101403.34;5106497;28;20031;-86
2021/06/23 07:20:08;;;;;;;11.63;5.25;;;;;;;28.43;31.98;101404.66;5112143;28;20076;-86
2021/06/23 07:22:33;;;;;;;7.82;4.90;;;;;;;28.76;32.58;101409.47;5110437;28;20023;-86
2021/06/23 07:24:59;;;;;;;6.30;4.50;;;;;;;29.00;31.29;101407.28;5092329;28;20073;-86
2021/06/23 07:27:26;;;;;;;5.03;3.90;;;;;;;29.43;31.80;101397.03;5093190;28;20048;-86
2021/06/23 07:29:52;;;;;;;9.10;4.40;;;;;;;29.89;30.96;101394.63;5093048;28;20103;-86
2021/06/23 07:37:09;;;;;;;7.60;5.38;;;;;;;30.71;30.53;101393.25;5108977;28;20177;-86
2021/06/23 07:39:36;;;;;;;23.77;6.10;;;;;;;30.60;29.94;101397.44;5104274;28;20055;-86
2021/06/23 07:42:05;;;;;;;318.35;45.35;;;;;;;31.41;29.20;101392.50;5111229;28;20054;-86
2021/06/23 07:44:38;;;;;;;53.08;9.93;;;;;;;31.81;28.58;101387.66;5112803;28;20023;-86
2021/06/23 07:47:07;;;;;;;18.52;5.32;;;;;;;32.36;28.31;101383.41;5105576;28;20020;-84
2021/06/23 07:49:36;;;;;;;12.00;5.13;;;;;;;32.35;27.54;101379.84;5092322;28;20469;-84
2021/06/23 08:08:14;;;;;;;6.75;3.80;;;;;;;33.69;25.61;101384.41;5112872;28;20099;-85
2021/06/23 08:13:07;;;;;;;6.00;3.88;;;;;;;34.09;25.32;101380.19;5112590;28;20436;-84
2021/06/23 08:15:39;;;;;;;3.85;3.45;;;;;;;34.60;24.52;101375.88;5109670;28;20024;-84
2021/06/23 08:18:05;;;;;;;3.67;3.35;;;;;;;34.21;23.47;101389.19;5114458;28;20455;-84
2021/06/23 08:20:30;;;;;;;4.75;3.45;;;;;;;34.50;23.12;101389.25;5113666;28;20054;-85
2021/06/23 08:22:56;;;;;;;4.85;3.45;;;;;;;34.51;23.96;101391.75;5105333;28;20047;-85
2021/06/23 08:25:22;;;;;;;4.03;2.97;;;;;;;34.76;23.35;101390.66;5110704;28;20114;-85
2021/06/23 08:27:49;;;;;;;5.45;3.55;;;;;;;34.47;23.65;101387.03;5107901;28;20020;-84
2021/06/23 08:30:15;;;;;;;6.10;3.72;;;;;;;34.66;23.36;101385.84;5098640;28;20539;-84
2021/06/23 08:32:42;;;;;;;4.03;3.40;;;;;;;34.60;22.89;101386.78;5108371;28;20035;-84
2021/06/23 08:35:09;;;;;;;3.63;3.33;;;;;;;34.49;23.50;101388.44;5113751;28;20081;-84
2021/06/23 08:37:35;;;;;;;4.13;3.15;;;;;;;35.01;23.51;101390.31;5104978;28;20056;-84
2021/06/23 08:40:01;;;;;;;3.95;2.95;;;;;;;35.28;21.23;101384.31;5097667;28;20103;-84
2021/06/23 08:42:27;;;;;;;5.72;3.58;;;;;;;35.13;21.34;101379.34;5107031;28;20060;-84
2021/06/23 08:44:53;;;;;;;6.18;3.60;;;;;;;34.96;22.07;101382.88;5110505;28;20023;-84
2021/06/23 08:47:19;;;;;;;4.75;3.70;;;;;;;35.01;23.67;101376.69;5113519;28;20034;-84
2021/06/23 08:49:47;;;;;;;5.15;3.58;;;;;;;35.09;21.63;101384.50;5114692;28;20031;-84
2021/06/23 08:52:13;;;;;;;7.50;4.00;;;;;;;35.55;21.76;101376.31;5112883;28;20038;-84
2021/06/23 08:54:40;;;;;;;5.13;3.38;;;;;;;35.87;20.67;101379.31;5115702;28;20438;-84
2021/06/23 08:57:06;;;;;;;6.15;3.00;;;;;;;35.83;21.69;101369.94;5113343;28;20028;-85
2021/06/23 08:59:32;;;;;;;5.90;3.17;;;;;;;35.77;21.27;101378.34;5115503;28;20019;-84
2021/06/23 09:01:58;;;;;;;4.80;3.03;;;;;;;36.07;19.72;101372.47;5113529;28;20453;-85
2021/06/23 09:04:27;;;;;;;6.07;3.75;;;;;;;36.02;20.28;101361.47;5095370;28;20024;-84
2021/06/23 09:06:59;;;;;;;4.38;2.97;;;;;;;35.67;20.46;101365.34;5109935;28;20035;-85
2021/06/23 09:09:27;;;;;;;3.15;2.75;;;;;;;36.53;20.54;101375.84;5114856;28;20062;-85
2021/06/23 09:11:58;;;;;;;3.47;3.05;;;;;;;36.04;19.84;101370.25;5115268;28;20056;-85
2021/06/23 09:14:26;;;;;;;5.63;3.17;;;;;;;36.46;19.45;101367.84;5114794;28;20165;-85
2021/06/23 09:17:07;;;;;;;3.38;3.08;;;;;;;36.77;18.47;101364.66;5114579;28;20019;-84
2021/06/23 09:19:41;;;;;;;3.95;3.05;;;;;;;36.58;19.54;101362.25;5114539;28;20027;-84
2021/06/23 09:22:39;;;;;;;4.05;3.15;;;;;;;36.91;19.11;101365.94;5114338;28;20069;-84
2021/06/23 09:25:11;;;;;;;6.07;3.00;;;;;;;37.32;16.70;101358.13;5114274;28;20085;-84
2021/06/23 09:27:45;;;;;;;4.15;2.55;;;;;;;37.28;18.75;101354.25;5112743;28;20473;-83
2021/06/23 09:30:42;;;;;;;5.50;2.70;;;;;;;37.60;18.84;101357.03;5113995;28;20019;-84
2021/06/23 09:33:07;;;;;;;5.70;3.15;;;;;;;36.66;18.67;101359.09;5112991;28;20036;-83
2021/06/23 09:35:33;;;;;;;4.20;2.42;;;;;;;37.24;18.49;101350.41;5114534;28;20027;-83
2021/06/23 09:37:58;;;;;;;2.85;2.65;;;;;;;37.10;18.42;101359.00;5114559;28;20077;-83
2021/06/23 09:40:24;;;;;;;3.47;2.67;;;;;;;37.58;18.20;101352.84;5114284;28;20023;-83
2021/06/23 09:42:56;;;;;;;11.18;3.80;;;;;;;37.58;18.12;101350.13;5113873;28;20110;-83
2021/06/23 09:45:23;;;;;;;4.05;2.67;;;;;;;38.06;17.42;101354.63;5113792;28;20035;-83
2021/06/23 09:47:49;;;;;;;4.22;2.83;;;;;;;37.69;18.27;101351.88;5114715;28;20069;-84
2021/06/23 09:50:23;;;;;;;3.65;2.70;;;;;;;37.92;18.56;101353.41;5113977;28;20473;-84
2021/06/23 09:53:02;;;;;;;4.45;3.05;;;;;;;37.32;16.77;101347.19;5112499;28;20058;-84
2021/06/23 09:55:38;;;;;;;5.30;2.83;;;;;;;37.38;17.54;101346.13;5113935;28;20032;-84
2021/06/23 09:58:14;;;;;;;4.82;2.70;;;;;;;37.69;17.38;101346.41;5101338;28;20032;-84
2021/06/23 10:00:58;;;;;;;3.58;3.22;;;;;;;37.21;17.42;101338.06;5100645;28;20435;-84
2021/06/23 10:03:25;;;;;;;3.38;2.55;;;;;;;37.69;17.41;101338.19;5114518;28;20031;-84
2021/06/23 10:05:50;;;;;;;4.65;2.92;;;;;;;38.01;17.46;101338.09;5104760;28;20478;-84
2021/06/23 10:08:26;;;;;;;3.80;2.60;;;;;;;38.06;17.69;101335.41;5093914;28;20028;-85
2021/06/23 10:10:52;;;;;;;4.65;3.60;;;;;;;38.08;17.41;101337.91;5101097;28;20077;-85
2021/06/23 10:13:18;;;;;;;7.82;2.40;;;;;;;38.17;16.96;101333.53;5093900;28;20016;-85
2021/06/23 10:15:44;;;;;;;4.40;2.42;;;;;;;38.13;15.85;101337.91;5099899;28;20015;-85
2021/06/23 10:18:11;;;;;;;3.90;2.55;;;;;;;37.35;16.92;101335.72;5112824;28;20427;-85
2021/06/23 10:20:37;;;;;;;5.78;2.90;;;;;;;38.31;15.28;101338.53;5109768;28;20405;-85
2021/06/23 10:23:06;;;;;;;4.70;2.65;;;;;;;39.24;15.40;101335.78;5106386;28;20118;-84
2021/06/23 10:25:32;;;;;;;4.30;2.50;;;;;;;39.20;15.17;101333.84;5093122;28;20035;-85
2021/06/23 10:27:59;;;;;;;4.55;2.13;;;;;;;39.00;15.27;101340.97;5103624;28;20031;-84
2021/06/23 10:30:29;;;;;;;3.85;2.58;;;;;;;39.09;15.28;101335.78;5098089;28;20024;-85
2021/06/23 10:32:55;;;;;;;3.70;2.55;;;;;;;38.85;15.19;101332.72;5092996;28;20665;-85
2021/06/23 10:35:21;;;;;;;3.15;2.55;;;;;;;38.90;15.08;101329.94;5093567;28;20111;-85
2021/06/23 10:37:47;;;;;;;4.32;3.08;;;;;;;38.77;15.32;101339.56;5093236;28;20104;-85
2021/06/23 10:40:14;;;;;;;4.72;2.90;;;;;;;38.13;15.81;101337.91;5096977;28;20050;-84
2021/06/23 10:42:40;;;;;;;3.28;2.58;;;;;;;37.74;15.41;101324.53;5092667;28;20027;-84
2021/06/23 10:45:07;;;;;;;5.38;2.80;;;;;;;38.53;15.72;101336.47;5097713;28;20027;-84
2021/06/23 10:47:38;;;;;;;3.38;2.70;;;;;;;38.07;15.37;101330.75;5094099;28;20024;-84
2021/06/23 10:50:05;;;;;;;3.38;2.40;;;;;;;38.50;15.31;101326.00;5092978;28;20024;-85
2021/06/23 10:52:32;;;;;;;3.33;2.25;;;;;;;38.89;15.38;101339.31;5092986;28;20103;-85
2021/06/23 10:55:20;;;;;;;4.03;2.75;;;;;;;38.66;15.46;101329.63;5095262;28;20040;-84
2021/06/23 10:57:48;;;;;;;4.30;2.85;;;;;;;37.92;16.01;101333.38;5105101;28;20169;-85
2021/06/23 11:00:26;;;;;;;3.92;2.95;;;;;;;37.78;16.67;101331.13;5092660;28;20031;-84
2021/06/23 11:03:08;;;;;;;3.38;2.72;;;;;;;38.02;16.35;101322.50;5107156;28;20066;-84
2021/06/23 11:05:51;;;;;;;6.88;3.17;;;;;;;38.57;16.24;101320.28;5111722;28;20032;-84
2021/06/23 11:08:23;;;;;;;4.63;3.00;;;;;;;38.28;16.36;101324.28;5112120;28;20103;-84
2021/06/23 11:10:50;;;;;;;5.38;2.83;;;;;;;38.53;16.57;101325.50;5112936;28;20068;-84
2021/06/23 11:13:21;;;;;;;3.88;2.78;;;;;;;38.32;16.14;101321.00;5112373;28;20051;-85
2021/06/23 11:15:49;;;;;;;7.93;3.20;;;;;;;39.10;14.99;101323.69;5095705;28;20039;-84
2021/06/23 11:18:36;;;;;;;7.47;2.90;;;;;;;39.22;15.30;101318.78;5092500;28;20072;-84
2021/06/23 11:21:06;;;;;;;5.85;2.75;;;;;;;38.41;16.59;101317.47;5092382;28;20551;-84
2021/06/23 11:23:55;;;;;;;3.00;2.70;;;;;;;38.64;15.80;101316.19;5104167;28;20116;-84
2021/06/23 11:26:23;;;;;;;4.68;3.25;;;;;;;39.27;15.99;101310.50;5112752;28;20032;-85
2021/06/23 11:29:17;;;;;;;6.00;3.30;;;;;;;38.31;17.13;101316.59;5108118;28;20423;-85
2021/06/23 11:31:58;;;;;;;3.67;2.83;;;;;;;38.36;16.26;101313.88;5097117;28;20024;-83
2021/06/23 11:34:36;;;;;;;3.40;2.88;;;;;;;38.90;15.76;101313.47;5092268;28;20486;-85
2021/06/23 11:37:02;;;;;;;3.15;2.65;;;;;;;38.15;16.00;101308.31;5100903;28;20072;-84
2021/06/23 11:39:27;;;;;;;4.47;3.30;;;;;;;39.01;14.98;101314.38;5096373;28;20032;-85
2021/06/23 11:41:53;;;;;;;4.65;2.83;;;;;;;36.78;17.01;101306.97;5102903;28;20041;-85
2021/06/23 11:44:19;;;;;;;6.15;3.25;;;;;;;36.88;16.84;101306.22;5100578;28;20112;-85
2021/06/23 11:46:44;;;;;;;4.47;2.47;;;;;;;37.07;16.71;101301.22;5092107;28;20486;-85
2021/06/23 11:49:10;;;;;;;4.30;3.00;;;;;;;37.65;16.19;101304.19;5103995;28;20031;-85